AUR79B EGCC-EGJB
Flight info
| Callsign | AUR79B |
|---|---|
| Flight time | 1h 8m |
| Altitude | 19000 |
| Route | LISTO L612 HON N859 CPT Y321 PEPIS/N0271F200 Q41 SAM N63 LELNA |
| Aircraft | AT76/M-SDFGIRY/S |
Departure
| Time | 2026-04-30 19:40 |
|---|---|
| Airport | Manchester Airport (EGCC) |
Arrival
| Time | 2026-04-30 20:48 |
|---|---|
| Airport | Guernsey Airport (EGJB) |
| Time | Latitude | Longitude | Altitude | Speed | Heading |
|---|---|---|---|---|---|
| 2026-04-30 19:24 | 53.36837 | -2.28886 | 249 ft | 0 kts | 130° |
| 2026-04-30 19:27 | 53.36844 | -2.28900 | 249 ft | 2 kts | 139° |
| 2026-04-30 19:28 | 53.36859 | -2.28926 | 249 ft | 2 kts | 136° |
| 2026-04-30 19:28 | 53.36877 | -2.28922 | 249 ft | 2 kts | 225° |
| 2026-04-30 19:29 | 53.36886 | -2.28906 | 249 ft | 0 kts | 226° |
| 2026-04-30 19:30 | 53.36868 | -2.28938 | 249 ft | 6 kts | 227° |
| 2026-04-30 19:30 | 53.36819 | -2.29010 | 250 ft | 6 kts | 211° |
| 2026-04-30 19:31 | 53.36729 | -2.29011 | 251 ft | 7 kts | 135° |
| 2026-04-30 19:31 | 53.36690 | -2.28947 | 251 ft | 8 kts | 135° |
| 2026-04-30 19:31 | 53.36598 | -2.28830 | 250 ft | 8 kts | 118° |
| 2026-04-30 19:32 | 53.36579 | -2.28738 | 250 ft | 9 kts | 108° |
| 2026-04-30 19:32 | 53.36547 | -2.28655 | 250 ft | 9 kts | 132° |
| 2026-04-30 19:32 | 53.36505 | -2.28583 | 249 ft | 9 kts | 133° |
| 2026-04-30 19:32 | 53.36459 | -2.28510 | 249 ft | 9 kts | 136° |
| 2026-04-30 19:33 | 53.36414 | -2.28432 | 249 ft | 9 kts | 134° |
| 2026-04-30 19:33 | 53.36366 | -2.28354 | 248 ft | 10 kts | 135° |
| 2026-04-30 19:33 | 53.36313 | -2.28265 | 248 ft | 11 kts | 135° |
| 2026-04-30 19:33 | 53.36255 | -2.28167 | 248 ft | 12 kts | 135° |
| 2026-04-30 19:34 | 53.36194 | -2.28063 | 247 ft | 13 kts | 136° |
| 2026-04-30 19:34 | 53.36130 | -2.27955 | 246 ft | 13 kts | 134° |
| 2026-04-30 19:34 | 53.35967 | -2.27836 | 246 ft | 14 kts | 185° |
| 2026-04-30 19:35 | 53.35867 | -2.27855 | 246 ft | 14 kts | 184° |
| 2026-04-30 19:35 | 53.35768 | -2.27870 | 247 ft | 15 kts | 187° |
| 2026-04-30 19:35 | 53.35665 | -2.27888 | 247 ft | 15 kts | 185° |
| 2026-04-30 19:35 | 53.35584 | -2.27984 | 248 ft | 15 kts | 231° |
| 2026-04-30 19:36 | 53.35510 | -2.28108 | 250 ft | 15 kts | 210° |
| 2026-04-30 19:36 | 53.35408 | -2.28164 | 250 ft | 16 kts | 188° |
| 2026-04-30 19:36 | 53.35221 | -2.28324 | 252 ft | 15 kts | 229° |
| 2026-04-30 19:37 | 53.35165 | -2.28439 | 253 ft | 0 kts | 230° |
| 2026-04-30 19:37 | 53.35163 | -2.28442 | 253 ft | 4 kts | 230° |
| 2026-04-30 19:37 | 53.35133 | -2.28503 | 254 ft | 9 kts | 230° |
| 2026-04-30 19:37 | 53.35088 | -2.28596 | 255 ft | 12 kts | 232° |
| 2026-04-30 19:38 | 53.35034 | -2.28706 | 256 ft | 13 kts | 228° |
| 2026-04-30 19:38 | 53.34968 | -2.28821 | 258 ft | 14 kts | 226° |
| 2026-04-30 19:38 | 53.34898 | -2.28945 | 259 ft | 15 kts | 226° |
| 2026-04-30 19:38 | 53.34819 | -2.29055 | 261 ft | 15 kts | 203° |
| 2026-04-30 19:39 | 53.34719 | -2.29050 | 262 ft | 15 kts | 151° |
| 2026-04-30 19:39 | 53.34679 | -2.28943 | 263 ft | 9 kts | 68° |
| 2026-04-30 19:39 | 53.34719 | -2.28850 | 262 ft | 20 kts | 51° |
| 2026-04-30 19:39 | 53.34948 | -2.28373 | 257 ft | 83 kts | 51° |
| 2026-04-30 19:40 | 53.35433 | -2.27379 | 268 ft | 133 kts | 51° |
| 2026-04-30 19:40 | 53.36051 | -2.26126 | 724 ft | 140 kts | 52° |
| 2026-04-30 19:40 | 53.36705 | -2.24858 | 1186 ft | 157 kts | 56° |
| 2026-04-30 19:40 | 53.37437 | -2.23294 | 1438 ft | 181 kts | 60° |
| 2026-04-30 19:41 | 53.37771 | -2.21315 | 1718 ft | 184 kts | 104° |
| 2026-04-30 19:41 | 53.37041 | -2.19567 | 1978 ft | 198 kts | 146° |
| 2026-04-30 19:41 | 53.35638 | -2.19162 | 2235 ft | 218 kts | 184° |
| 2026-04-30 19:41 | 53.34144 | -2.19463 | 2479 ft | 214 kts | 167° |
| 2026-04-30 19:42 | 53.32738 | -2.18704 | 2745 ft | 213 kts | 160° |
| 2026-04-30 19:42 | 53.31293 | -2.18085 | 3066 ft | 217 kts | 166° |
| 2026-04-30 19:42 | 53.29776 | -2.17671 | 3367 ft | 223 kts | 172° |
| 2026-04-30 19:42 | 53.28219 | -2.17558 | 3661 ft | 227 kts | 180° |
| 2026-04-30 19:43 | 53.26632 | -2.17732 | 3964 ft | 231 kts | 184° |
| 2026-04-30 19:43 | 53.25021 | -2.18024 | 4276 ft | 234 kts | 185° |
| 2026-04-30 19:43 | 53.23411 | -2.18309 | 4582 ft | 237 kts | 185° |
| 2026-04-30 19:44 | 53.20096 | -2.18869 | 5180 ft | 238 kts | 184° |
| 2026-04-30 19:44 | 53.18454 | -2.19114 | 5477 ft | 237 kts | 184° |
| 2026-04-30 19:44 | 53.16800 | -2.19354 | 5782 ft | 240 kts | 184° |
| 2026-04-30 19:44 | 53.15121 | -2.19599 | 6079 ft | 242 kts | 183° |
| 2026-04-30 19:45 | 53.13432 | -2.19848 | 6381 ft | 243 kts | 183° |
| 2026-04-30 19:45 | 53.11742 | -2.20089 | 6688 ft | 245 kts | 183° |
| 2026-04-30 19:45 | 53.10033 | -2.20339 | 6991 ft | 246 kts | 183° |
| 2026-04-30 19:45 | 53.08324 | -2.20583 | 7276 ft | 247 kts | 183° |
| 2026-04-30 19:46 | 53.06626 | -2.20831 | 7567 ft | 249 kts | 184° |
| 2026-04-30 19:46 | 53.04943 | -2.20633 | 7821 ft | 242 kts | 159° |
| 2026-04-30 19:46 | 53.03545 | -2.19140 | 7995 ft | 238 kts | 144° |
| 2026-04-30 19:46 | 53.02205 | -2.17511 | 8166 ft | 239 kts | 146° |
| 2026-04-30 19:47 | 53.00803 | -2.16032 | 8339 ft | 239 kts | 151° |
| 2026-04-30 19:47 | 52.99831 | -2.15171 | 8454 ft | 239 kts | 154° |
| 2026-04-30 19:47 | 52.97826 | -2.13628 | 8695 ft | 239 kts | 156° |
| 2026-04-30 19:47 | 52.96298 | -2.12505 | 8870 ft | 240 kts | 156° |
| 2026-04-30 19:48 | 52.94774 | -2.11380 | 9067 ft | 240 kts | 156° |
| 2026-04-30 19:48 | 52.93247 | -2.10231 | 9237 ft | 241 kts | 156° |
| 2026-04-30 19:48 | 52.91732 | -2.09068 | 9416 ft | 241 kts | 156° |
| 2026-04-30 19:48 | 52.90211 | -2.07896 | 9600 ft | 241 kts | 156° |
| 2026-04-30 19:49 | 52.88680 | -2.06721 | 9790 ft | 242 kts | 156° |
| 2026-04-30 19:49 | 52.85640 | -2.04384 | 10153 ft | 243 kts | 156° |
| 2026-04-30 19:49 | 52.84109 | -2.03203 | 10309 ft | 243 kts | 156° |
| 2026-04-30 19:50 | 52.82576 | -2.02024 | 10470 ft | 243 kts | 156° |
| 2026-04-30 19:50 | 52.81040 | -2.00848 | 10636 ft | 242 kts | 156° |
| 2026-04-30 19:50 | 52.79516 | -1.99676 | 10800 ft | 241 kts | 156° |
| 2026-04-30 19:50 | 52.77989 | -1.98507 | 10964 ft | 241 kts | 155° |
| 2026-04-30 19:51 | 52.76468 | -1.97340 | 11149 ft | 241 kts | 155° |
| 2026-04-30 19:51 | 52.74949 | -1.96176 | 11314 ft | 241 kts | 156° |
| 2026-04-30 19:51 | 52.73428 | -1.95017 | 11485 ft | 241 kts | 155° |
| 2026-04-30 19:51 | 52.71907 | -1.93851 | 11664 ft | 241 kts | 155° |
| 2026-04-30 19:52 | 52.70386 | -1.92692 | 11836 ft | 241 kts | 155° |
| 2026-04-30 19:52 | 52.68884 | -1.91544 | 12012 ft | 241 kts | 155° |
| 2026-04-30 19:52 | 52.67362 | -1.90385 | 12184 ft | 241 kts | 155° |
| 2026-04-30 19:52 | 52.65839 | -1.89228 | 12355 ft | 241 kts | 155° |
| 2026-04-30 19:53 | 52.64316 | -1.88066 | 12527 ft | 241 kts | 155° |
| 2026-04-30 19:53 | 52.62796 | -1.86912 | 12697 ft | 241 kts | 155° |
| 2026-04-30 19:53 | 52.61274 | -1.85754 | 12872 ft | 240 kts | 155° |
| 2026-04-30 19:53 | 52.59756 | -1.84603 | 13043 ft | 240 kts | 155° |
| 2026-04-30 19:54 | 52.58236 | -1.83451 | 13240 ft | 240 kts | 155° |
| 2026-04-30 19:54 | 52.57232 | -1.82686 | 13355 ft | 240 kts | 155° |
| 2026-04-30 19:54 | 52.55717 | -1.81539 | 13539 ft | 240 kts | 155° |
| 2026-04-30 19:54 | 52.53696 | -1.80012 | 13781 ft | 240 kts | 155° |
| 2026-04-30 19:55 | 52.52179 | -1.78864 | 13966 ft | 240 kts | 155° |
| 2026-04-30 19:55 | 52.50666 | -1.77717 | 14122 ft | 239 kts | 155° |
| 2026-04-30 19:55 | 52.49151 | -1.76575 | 14303 ft | 239 kts | 155° |
| 2026-04-30 19:55 | 52.47642 | -1.75434 | 14463 ft | 239 kts | 155° |
| 2026-04-30 19:56 | 52.46131 | -1.74296 | 14638 ft | 238 kts | 155° |
| 2026-04-30 19:56 | 52.45136 | -1.73546 | 14740 ft | 238 kts | 155° |
| 2026-04-30 19:56 | 52.43634 | -1.72411 | 14908 ft | 237 kts | 155° |
| 2026-04-30 19:56 | 52.42132 | -1.71281 | 15080 ft | 237 kts | 155° |
| 2026-04-30 19:57 | 52.40631 | -1.70153 | 15272 ft | 237 kts | 155° |
| 2026-04-30 19:57 | 52.38644 | -1.68659 | 15495 ft | 237 kts | 155° |
| 2026-04-30 19:57 | 52.37145 | -1.67539 | 15674 ft | 237 kts | 155° |
| 2026-04-30 19:57 | 52.35646 | -1.66421 | 15837 ft | 236 kts | 155° |
| 2026-04-30 19:58 | 52.34123 | -1.65431 | 16011 ft | 235 kts | 161° |
| 2026-04-30 19:58 | 52.32557 | -1.64630 | 16186 ft | 235 kts | 163° |
| 2026-04-30 19:58 | 52.31516 | -1.64130 | 16305 ft | 235 kts | 163° |
| 2026-04-30 19:58 | 52.29438 | -1.63130 | 16538 ft | 235 kts | 162° |
| 2026-04-30 19:59 | 52.27873 | -1.62339 | 16738 ft | 235 kts | 162° |
| 2026-04-30 19:59 | 52.26317 | -1.61537 | 16917 ft | 235 kts | 161° |
| 2026-04-30 19:59 | 52.23212 | -1.59923 | 17277 ft | 234 kts | 161° |
| 2026-04-30 20:00 | 52.22163 | -1.59377 | 17397 ft | 234 kts | 161° |
| 2026-04-30 20:00 | 52.20613 | -1.58570 | 17581 ft | 233 kts | 161° |
| 2026-04-30 20:00 | 52.19085 | -1.57778 | 17765 ft | 233 kts | 161° |
| 2026-04-30 20:00 | 52.17544 | -1.56975 | 17945 ft | 232 kts | 161° |
| 2026-04-30 20:01 | 52.14466 | -1.55378 | 18320 ft | 232 kts | 161° |
| 2026-04-30 20:01 | 52.12925 | -1.54581 | 18508 ft | 231 kts | 161° |
| 2026-04-30 20:01 | 52.11391 | -1.53785 | 18676 ft | 231 kts | 161° |
| 2026-04-30 20:02 | 52.08334 | -1.52202 | 18998 ft | 230 kts | 161° |
| 2026-04-30 20:02 | 52.06805 | -1.51412 | 19117 ft | 232 kts | 161° |
| 2026-04-30 20:03 | 52.03680 | -1.49798 | 19198 ft | 240 kts | 161° |
| 2026-04-30 20:03 | 52.02076 | -1.48970 | 19179 ft | 244 kts | 161° |
| 2026-04-30 20:03 | 52.00442 | -1.48130 | 19185 ft | 247 kts | 161° |
| 2026-04-30 20:03 | 51.98814 | -1.47293 | 19184 ft | 250 kts | 161° |
| 2026-04-30 20:04 | 51.97144 | -1.46431 | 19169 ft | 253 kts | 161° |
| 2026-04-30 20:04 | 51.95453 | -1.45560 | 19182 ft | 255 kts | 161° |
| 2026-04-30 20:04 | 51.93756 | -1.44687 | 19181 ft | 257 kts | 161° |
| 2026-04-30 20:05 | 51.90313 | -1.42923 | 19183 ft | 261 kts | 161° |
| 2026-04-30 20:05 | 51.88577 | -1.42035 | 19187 ft | 262 kts | 161° |
| 2026-04-30 20:05 | 51.85084 | -1.40245 | 19185 ft | 264 kts | 161° |
| 2026-04-30 20:06 | 51.83336 | -1.39353 | 19187 ft | 264 kts | 161° |
| 2026-04-30 20:06 | 51.81577 | -1.38453 | 19182 ft | 265 kts | 161° |
| 2026-04-30 20:06 | 51.79840 | -1.37568 | 19189 ft | 265 kts | 161° |
| 2026-04-30 20:06 | 51.78077 | -1.36674 | 19185 ft | 265 kts | 161° |
| 2026-04-30 20:07 | 51.76316 | -1.35785 | 19181 ft | 265 kts | 161° |
| 2026-04-30 20:07 | 51.74557 | -1.34874 | 19184 ft | 265 kts | 161° |
| 2026-04-30 20:07 | 51.71040 | -1.33084 | 19185 ft | 265 kts | 161° |
| 2026-04-30 20:08 | 51.69273 | -1.32186 | 19185 ft | 265 kts | 161° |
| 2026-04-30 20:08 | 51.67510 | -1.31292 | 19183 ft | 265 kts | 161° |
| 2026-04-30 20:08 | 51.65744 | -1.30400 | 19184 ft | 266 kts | 161° |
| 2026-04-30 20:08 | 51.63978 | -1.29515 | 19186 ft | 265 kts | 161° |
| 2026-04-30 20:09 | 51.62217 | -1.28610 | 19186 ft | 265 kts | 161° |
| 2026-04-30 20:09 | 51.60477 | -1.27727 | 19186 ft | 265 kts | 161° |
| 2026-04-30 20:09 | 51.56949 | -1.25951 | 19182 ft | 265 kts | 161° |
| 2026-04-30 20:10 | 51.53418 | -1.24168 | 19183 ft | 266 kts | 161° |
| 2026-04-30 20:10 | 51.51654 | -1.23281 | 19183 ft | 266 kts | 161° |
| 2026-04-30 20:10 | 51.49892 | -1.22397 | 19185 ft | 266 kts | 161° |
| 2026-04-30 20:11 | 51.46252 | -1.21992 | 19182 ft | 266 kts | 182° |
| 2026-04-30 20:11 | 51.44411 | -1.22289 | 19181 ft | 266 kts | 182° |
| 2026-04-30 20:11 | 51.42558 | -1.22559 | 19182 ft | 267 kts | 181° |
| 2026-04-30 20:12 | 51.38851 | -1.22871 | 19181 ft | 267 kts | 180° |
| 2026-04-30 20:12 | 51.37014 | -1.23016 | 19181 ft | 267 kts | 180° |
| 2026-04-30 20:12 | 51.35152 | -1.23171 | 19180 ft | 268 kts | 180° |
| 2026-04-30 20:13 | 51.33289 | -1.23321 | 19182 ft | 268 kts | 180° |
| 2026-04-30 20:13 | 51.31425 | -1.23471 | 19181 ft | 268 kts | 180° |
| 2026-04-30 20:13 | 51.29558 | -1.23620 | 19182 ft | 268 kts | 180° |
| 2026-04-30 20:13 | 51.27714 | -1.23769 | 19184 ft | 268 kts | 180° |
| 2026-04-30 20:14 | 51.25843 | -1.23921 | 19188 ft | 268 kts | 180° |
| 2026-04-30 20:14 | 51.23980 | -1.24072 | 19180 ft | 269 kts | 180° |
| 2026-04-30 20:14 | 51.22110 | -1.24222 | 19181 ft | 269 kts | 180° |
| 2026-04-30 20:14 | 51.20237 | -1.24379 | 19179 ft | 269 kts | 180° |
| 2026-04-30 20:15 | 51.18382 | -1.24708 | 19185 ft | 270 kts | 188° |
| 2026-04-30 20:15 | 51.16567 | -1.25500 | 19165 ft | 271 kts | 193° |
| 2026-04-30 20:15 | 51.14764 | -1.26393 | 19162 ft | 272 kts | 193° |
| 2026-04-30 20:15 | 51.12949 | -1.27252 | 19159 ft | 271 kts | 192° |
| 2026-04-30 20:16 | 51.11142 | -1.28027 | 19162 ft | 271 kts | 191° |
| 2026-04-30 20:16 | 51.09317 | -1.28784 | 19160 ft | 272 kts | 191° |
| 2026-04-30 20:16 | 51.07481 | -1.29552 | 19156 ft | 272 kts | 191° |
| 2026-04-30 20:16 | 51.05654 | -1.30317 | 19161 ft | 272 kts | 191° |
| 2026-04-30 20:17 | 51.03821 | -1.31085 | 19156 ft | 272 kts | 191° |
| 2026-04-30 20:17 | 51.01989 | -1.31855 | 19156 ft | 272 kts | 191° |
| 2026-04-30 20:17 | 51.00151 | -1.32625 | 19159 ft | 272 kts | 191° |
| 2026-04-30 20:17 | 50.98342 | -1.33383 | 19155 ft | 272 kts | 191° |
| 2026-04-30 20:18 | 50.96509 | -1.34153 | 19155 ft | 272 kts | 191° |
| 2026-04-30 20:18 | 50.94695 | -1.35006 | 19159 ft | 273 kts | 197° |
| 2026-04-30 20:18 | 50.92976 | -1.36326 | 19156 ft | 275 kts | 204° |
| 2026-04-30 20:18 | 50.91294 | -1.37807 | 19157 ft | 276 kts | 204° |
| 2026-04-30 20:19 | 50.89611 | -1.39274 | 19158 ft | 276 kts | 203° |
| 2026-04-30 20:19 | 50.87905 | -1.40669 | 19157 ft | 276 kts | 202° |
| 2026-04-30 20:19 | 50.86185 | -1.42030 | 19162 ft | 276 kts | 202° |
| 2026-04-30 20:19 | 50.84468 | -1.43394 | 19159 ft | 276 kts | 202° |
| 2026-04-30 20:20 | 50.82755 | -1.44757 | 19159 ft | 276 kts | 202° |
| 2026-04-30 20:20 | 50.81065 | -1.46104 | 19158 ft | 276 kts | 202° |
| 2026-04-30 20:20 | 50.79348 | -1.47470 | 19158 ft | 276 kts | 202° |
| 2026-04-30 20:20 | 50.77635 | -1.48830 | 19157 ft | 276 kts | 202° |
| 2026-04-30 20:21 | 50.75919 | -1.50198 | 19154 ft | 276 kts | 202° |
| 2026-04-30 20:21 | 50.74207 | -1.51558 | 19139 ft | 276 kts | 202° |
| 2026-04-30 20:21 | 50.72496 | -1.52927 | 19138 ft | 275 kts | 202° |
| 2026-04-30 20:21 | 50.70778 | -1.54269 | 19138 ft | 275 kts | 201° |
| 2026-04-30 20:22 | 50.69065 | -1.55622 | 19139 ft | 275 kts | 202° |
| 2026-04-30 20:22 | 50.67353 | -1.56975 | 19135 ft | 275 kts | 201° |
| 2026-04-30 20:22 | 50.65637 | -1.58331 | 19135 ft | 275 kts | 201° |
| 2026-04-30 20:22 | 50.63925 | -1.59684 | 19135 ft | 275 kts | 201° |
| 2026-04-30 20:23 | 50.62209 | -1.61037 | 19148 ft | 275 kts | 202° |
| 2026-04-30 20:23 | 50.60513 | -1.62372 | 19146 ft | 275 kts | 202° |
| 2026-04-30 20:23 | 50.58799 | -1.63723 | 19141 ft | 275 kts | 201° |
| 2026-04-30 20:23 | 50.57083 | -1.65074 | 19141 ft | 275 kts | 201° |
| 2026-04-30 20:24 | 50.55368 | -1.66421 | 19136 ft | 275 kts | 202° |
| 2026-04-30 20:24 | 50.53654 | -1.67767 | 19134 ft | 275 kts | 202° |
| 2026-04-30 20:24 | 50.51940 | -1.69111 | 19135 ft | 275 kts | 201° |
| 2026-04-30 20:24 | 50.50229 | -1.70455 | 19135 ft | 275 kts | 201° |
| 2026-04-30 20:25 | 50.46813 | -1.73128 | 19133 ft | 275 kts | 201° |
| 2026-04-30 20:25 | 50.45100 | -1.74470 | 19133 ft | 275 kts | 201° |
| 2026-04-30 20:26 | 50.41664 | -1.77152 | 19128 ft | 275 kts | 201° |
| 2026-04-30 20:26 | 50.38235 | -1.79827 | 19130 ft | 275 kts | 201° |
| 2026-04-30 20:26 | 50.36517 | -1.81168 | 19128 ft | 276 kts | 201° |
| 2026-04-30 20:27 | 50.33082 | -1.83840 | 19128 ft | 276 kts | 201° |
| 2026-04-30 20:27 | 50.29645 | -1.86511 | 19125 ft | 275 kts | 201° |
| 2026-04-30 20:28 | 50.26215 | -1.89170 | 19122 ft | 275 kts | 201° |
| 2026-04-30 20:28 | 50.22811 | -1.91805 | 19122 ft | 275 kts | 201° |
| 2026-04-30 20:29 | 50.19386 | -1.94454 | 19118 ft | 274 kts | 201° |
| 2026-04-30 20:30 | 50.14243 | -1.98421 | 19118 ft | 275 kts | 201° |
| 2026-04-30 20:30 | 50.09112 | -2.02370 | 19116 ft | 275 kts | 201° |
| 2026-04-30 20:31 | 50.03957 | -2.06328 | 19113 ft | 275 kts | 201° |
| 2026-04-30 20:32 | 49.98832 | -2.10258 | 18597 ft | 265 kts | 201° |
| 2026-04-30 20:32 | 49.95579 | -2.12710 | 17899 ft | 261 kts | 200° |
| 2026-04-30 20:33 | 49.93924 | -2.13935 | 17506 ft | 265 kts | 200° |
| 2026-04-30 20:33 | 49.90547 | -2.16384 | 16730 ft | 270 kts | 200° |
| 2026-04-30 20:33 | 49.88854 | -2.17592 | 16355 ft | 272 kts | 200° |
| 2026-04-30 20:34 | 49.85401 | -2.20049 | 15600 ft | 272 kts | 203° |
| 2026-04-30 20:34 | 49.83177 | -2.24937 | 14873 ft | 296 kts | 247° |
| 2026-04-30 20:35 | 49.82562 | -2.27999 | 14528 ft | 298 kts | 249° |
| 2026-04-30 20:35 | 49.81987 | -2.31090 | 14173 ft | 299 kts | 250° |
| 2026-04-30 20:35 | 49.80878 | -2.37325 | 13410 ft | 300 kts | 250° |
| 2026-04-30 20:36 | 49.80331 | -2.40439 | 13018 ft | 299 kts | 250° |
| 2026-04-30 20:36 | 49.79789 | -2.43545 | 12628 ft | 298 kts | 250° |
| 2026-04-30 20:36 | 49.78708 | -2.49678 | 11869 ft | 290 kts | 248° |
| 2026-04-30 20:37 | 49.77753 | -2.52326 | 11488 ft | 278 kts | 229° |
| 2026-04-30 20:37 | 49.76568 | -2.54678 | 11119 ft | 277 kts | 226° |
| 2026-04-30 20:37 | 49.75344 | -2.56990 | 10753 ft | 278 kts | 226° |
| 2026-04-30 20:37 | 49.74103 | -2.59279 | 10391 ft | 278 kts | 225° |
| 2026-04-30 20:38 | 49.72871 | -2.61528 | 10047 ft | 278 kts | 225° |
| 2026-04-30 20:38 | 49.71619 | -2.63795 | 9657 ft | 277 kts | 225° |
| 2026-04-30 20:38 | 49.70388 | -2.66023 | 9261 ft | 268 kts | 225° |
| 2026-04-30 20:39 | 49.68161 | -2.70075 | 8479 ft | 226 kts | 225° |
| 2026-04-30 20:39 | 49.67182 | -2.71878 | 8109 ft | 212 kts | 225° |
| 2026-04-30 20:39 | 49.66256 | -2.73581 | 7731 ft | 202 kts | 225° |
| 2026-04-30 20:40 | 49.64451 | -2.76890 | 6992 ft | 206 kts | 225° |
| 2026-04-30 20:40 | 49.63541 | -2.78543 | 6639 ft | 199 kts | 225° |
| 2026-04-30 20:40 | 49.62658 | -2.80144 | 6265 ft | 194 kts | 225° |
| 2026-04-30 20:41 | 49.60908 | -2.83300 | 5512 ft | 199 kts | 225° |
| 2026-04-30 20:41 | 49.59947 | -2.84817 | 5141 ft | 190 kts | 208° |
| 2026-04-30 20:41 | 49.58734 | -2.85287 | 4777 ft | 178 kts | 183° |
| 2026-04-30 20:41 | 49.57500 | -2.85428 | 4485 ft | 176 kts | 182° |
| 2026-04-30 20:42 | 49.56303 | -2.85532 | 4261 ft | 175 kts | 181° |
| 2026-04-30 20:42 | 49.55074 | -2.85614 | 4034 ft | 176 kts | 181° |
| 2026-04-30 20:42 | 49.52674 | -2.85745 | 3689 ft | 171 kts | 180° |
| 2026-04-30 20:43 | 49.51487 | -2.85804 | 3511 ft | 170 kts | 180° |
| 2026-04-30 20:43 | 49.50309 | -2.85857 | 3331 ft | 170 kts | 180° |
| 2026-04-30 20:43 | 49.49124 | -2.85906 | 3147 ft | 169 kts | 180° |
| 2026-04-30 20:44 | 49.46770 | -2.85996 | 2776 ft | 171 kts | 180° |
| 2026-04-30 20:44 | 49.45624 | -2.85656 | 2559 ft | 172 kts | 148° |
| 2026-04-30 20:44 | 49.44134 | -2.82735 | 2180 ft | 176 kts | 127° |
| 2026-04-30 20:45 | 49.42831 | -2.79625 | 1996 ft | 169 kts | 121° |
| 2026-04-30 20:45 | 49.42679 | -2.77879 | 2003 ft | 168 kts | 79° |
| 2026-04-30 20:45 | 49.43036 | -2.76204 | 2034 ft | 161 kts | 78° |
| 2026-04-30 20:46 | 49.43292 | -2.71473 | 1796 ft | 154 kts | 91° |
| 2026-04-30 20:46 | 49.43305 | -2.69929 | 1537 ft | 140 kts | 96° |
| 2026-04-30 20:47 | 49.43322 | -2.66961 | 1100 ft | 133 kts | 94° |
| 2026-04-30 20:47 | 49.43368 | -2.65543 | 924 ft | 134 kts | 92° |
| 2026-04-30 20:48 | 49.43422 | -2.62880 | 532 ft | 120 kts | 90° |
| 2026-04-30 20:48 | 49.43457 | -2.61639 | 373 ft | 113 kts | 88° |
| 2026-04-30 20:48 | 49.43486 | -2.60517 | 310 ft | 88 kts | 88° |
| 2026-04-30 20:48 | 49.43502 | -2.59936 | 318 ft | 35 kts | 94° |
| 2026-04-30 20:49 | 49.43407 | -2.59858 | 318 ft | 16 kts | 179° |
| 2026-04-30 20:49 | 49.43354 | -2.59843 | 320 ft | 8 kts | 148° |
| 2026-04-30 20:49 | 49.43351 | -2.59764 | 322 ft | 16 kts | 77° |
| 2026-04-30 20:50 | 49.43302 | -2.59744 | 322 ft | 4 kts | 220° |
| 2026-04-30 20:50 | 49.43285 | -2.59745 | 322 ft | 0 kts | 181° |